createdAt,value
2023-04-07T00:01:21.616Z,97930.19
2023-04-07T00:03:23.635Z,97932.84
2023-04-07T00:05:25.115Z,97932.03
2023-04-07T00:07:26.531Z,97926.06
2023-04-07T00:09:27.832Z,97925.31
2023-04-07T00:11:29.173Z,97928.84
2023-04-07T00:13:30.903Z,97925.53
2023-04-07T00:15:32.319Z,97912.94
2023-04-07T00:17:33.710Z,97915.56
2023-04-07T00:19:35.872Z,97912.22
2023-04-07T00:21:37.174Z,97920.84
2023-04-07T00:23:38.632Z,97913.31
2023-04-07T00:25:39.935Z,97914.22
2023-04-07T00:27:41.296Z,97911.78
2023-04-07T00:29:43.871Z,97914.47
2023-04-07T00:31:45.275Z,97912.91
2023-04-07T00:33:48.434Z,97909.56
2023-04-07T00:35:49.887Z,97912.13
2023-04-07T00:37:51.257Z,97907.00
2023-04-07T00:39:52.627Z,97902.09
2023-04-07T00:41:53.963Z,97902.16
2023-04-07T00:43:55.477Z,97897.19
2023-04-07T00:45:56.917Z,97898.16
2023-04-07T00:47:58.734Z,97892.25
2023-04-07T00:50:00.370Z,97911.00
2023-04-07T00:52:02.312Z,97888.13
2023-04-07T00:54:03.621Z,97888.06
2023-04-07T00:56:04.936Z,97882.09
2023-04-07T00:58:06.416Z,97882.81
2023-04-07T01:00:07.772Z,97883.69
2023-04-07T01:02:09.462Z,97881.06
2023-04-07T01:04:10.972Z,97880.94
2023-04-07T01:06:12.363Z,97875.66
2023-04-07T01:08:14.185Z,97872.91
2023-04-07T01:10:16.494Z,97882.06
2023-04-07T01:12:17.789Z,97875.84
2023-04-07T01:14:19.136Z,97873.06
2023-04-07T01:16:20.652Z,97861.84
2023-04-07T01:18:22.213Z,97873.53
2023-04-07T01:20:23.502Z,97863.13
2023-04-07T01:22:24.871Z,97863.84
2023-04-07T01:24:26.456Z,97862.97
2023-04-07T01:26:27.740Z,97862.94
2023-04-07T01:28:29.092Z,97861.22
2023-04-07T01:30:30.411Z,97867.25
2023-04-07T01:32:31.729Z,97855.41
2023-04-07T01:34:33.134Z,97860.66
2023-04-07T01:36:34.565Z,97859.06
2023-04-07T01:38:36.036Z,97867.72
2023-04-07T01:40:37.359Z,97855.94
2023-04-07T01:42:38.671Z,97860.34
2023-04-07T01:44:39.962Z,97863.03
2023-04-07T01:46:41.406Z,97866.56
2023-04-07T01:48:42.775Z,97860.72
2023-04-07T01:50:44.078Z,97855.81
2023-04-07T01:52:45.914Z,97855.09
2023-04-07T01:54:47.249Z,97852.72
2023-04-07T01:56:48.560Z,97849.34
2023-04-07T01:58:49.890Z,97850.31
2023-04-07T02:00:51.492Z,97846.13
2023-04-07T02:02:53.246Z,97855.44
2023-04-07T02:04:54.821Z,97859.72
2023-04-07T02:06:56.114Z,97848.69
2023-04-07T02:08:57.559Z,97855.41
2023-04-07T02:10:59.474Z,97858.81
2023-04-07T02:13:00.775Z,97848.63
2023-04-07T02:15:02.135Z,97851.09
2023-04-07T02:17:03.484Z,97844.22
2023-04-07T02:19:04.853Z,97857.78
2023-04-07T02:21:06.404Z,97852.72
2023-04-07T02:23:07.742Z,97844.16
2023-04-07T02:25:09.089Z,97849.19
2023-04-07T02:27:10.468Z,97851.69
2023-04-07T02:29:11.828Z,97844.75
2023-04-07T02:31:13.848Z,97839.38
2023-04-07T02:33:15.692Z,97845.28
2023-04-07T02:35:16.989Z,97833.47
2023-04-07T02:37:18.348Z,97840.34
2023-04-07T02:39:19.688Z,97836.97
2023-04-07T02:41:21.534Z,97838.00
2023-04-07T02:43:22.932Z,97841.66
2023-04-07T02:45:24.276Z,97840.09
2023-04-07T02:47:25.730Z,97836.66
2023-04-07T02:49:27.183Z,97838.28
2023-04-07T02:51:28.984Z,97834.75
2023-04-07T02:53:30.326Z,97833.81
2023-04-07T02:55:31.691Z,97831.16
2023-04-07T02:57:33.020Z,97826.75
2023-04-07T02:59:34.370Z,97822.28
2023-04-07T03:01:36.419Z,97814.53
2023-04-07T03:03:39.552Z,97814.50
2023-04-07T03:05:40.989Z,97812.69
2023-04-07T03:07:42.290Z,97811.75
2023-04-07T03:09:43.713Z,97809.19
2023-04-07T03:11:45.052Z,97809.13
2023-04-07T03:13:46.572Z,97804.94
2023-04-07T03:15:48.082Z,97808.34
2023-04-07T03:17:49.478Z,97804.94
2023-04-07T03:19:51.934Z,97806.66
2023-04-07T03:21:53.324Z,97807.50
2023-04-07T03:23:54.893Z,97802.47
2023-04-07T03:25:57.698Z,97796.63
2023-04-07T03:27:59.016Z,97796.81
2023-04-07T03:30:00.312Z,97796.97
2023-04-07T03:32:02.208Z,97801.31
2023-04-07T03:34:03.492Z,97797.22
2023-04-07T03:36:04.872Z,97806.59
2023-04-07T03:38:06.324Z,97810.97
2023-04-07T03:40:07.700Z,97794.81
2023-04-07T03:42:09.049Z,97799.84
2023-04-07T03:44:10.640Z,97805.00
2023-04-07T03:46:11.950Z,97799.94
2023-04-07T03:48:13.486Z,97803.25
2023-04-07T03:50:14.835Z,97800.56
2023-04-07T03:52:16.296Z,97802.31
2023-04-07T03:54:17.591Z,97804.88
2023-04-07T03:56:18.912Z,97803.06
2023-04-07T03:58:20.352Z,97797.94
2023-04-07T04:00:21.657Z,97797.94
2023-04-07T04:02:23.135Z,97797.09
2023-04-07T04:04:24.768Z,97800.50
2023-04-07T04:06:26.510Z,97793.81
2023-04-07T04:08:27.847Z,97788.72
2023-04-07T04:10:29.210Z,97800.69
2023-04-07T04:12:30.554Z,97791.47
2023-04-07T04:14:31.886Z,97800.09
2023-04-07T04:16:35.427Z,97800.13
2023-04-07T04:18:36.935Z,97803.47
2023-04-07T04:20:38.317Z,97804.38
2023-04-07T04:22:39.657Z,97800.91
2023-04-07T04:24:42.017Z,97805.03
2023-04-07T04:26:43.367Z,97804.81
2023-04-07T04:28:44.660Z,97799.63
2023-04-07T04:30:46.151Z,97804.53
2023-04-07T04:32:47.778Z,97801.78
2023-04-07T04:34:49.356Z,97796.50
2023-04-07T04:36:50.767Z,97797.25
2023-04-07T04:38:52.132Z,97792.94
2023-04-07T04:40:53.480Z,97803.00
2023-04-07T04:42:54.831Z,97785.84
2023-04-07T04:44:56.287Z,97786.66
2023-04-07T04:46:57.711Z,97794.28
2023-04-07T04:48:59.098Z,97799.34
2023-04-07T04:51:00.590Z,97795.97
2023-04-07T04:53:02.420Z,97794.28
2023-04-07T04:55:03.731Z,97791.78
2023-04-07T04:57:05.030Z,97792.66
2023-04-07T04:59:06.578Z,97788.47
2023-04-07T05:01:08.828Z,97796.16
2023-04-07T05:03:10.331Z,97793.72
2023-04-07T05:05:11.988Z,97799.69
2023-04-07T05:07:13.386Z,97799.81
2023-04-07T05:09:14.748Z,97799.97
2023-04-07T05:11:16.085Z,97800.06
2023-04-07T05:13:17.374Z,97794.19
2023-04-07T05:15:18.667Z,97798.66
2023-04-07T05:17:20.185Z,97804.69
2023-04-07T05:19:21.592Z,97800.56
2023-04-07T05:21:22.887Z,97798.16
2023-04-07T05:23:24.193Z,97800.75
2023-04-07T05:25:25.768Z,97799.13
2023-04-07T05:27:27.367Z,97685.13
2023-04-07T05:29:28.686Z,97811.91
2023-04-07T05:31:30.046Z,97806.88
2023-04-07T05:33:31.398Z,97800.09
2023-04-07T05:35:32.690Z,97801.75
2023-04-07T05:37:34.042Z,97803.47
2023-04-07T05:39:38.259Z,97805.22
2023-04-07T05:41:39.684Z,97804.38
2023-04-07T05:43:41.059Z,97810.38
2023-04-07T05:45:42.465Z,97809.41
2023-04-07T05:47:43.950Z,97804.28
2023-04-07T05:49:48.056Z,97806.53
2023-04-07T05:51:49.439Z,97803.81
2023-04-07T05:53:51.046Z,97805.38
2023-04-07T05:55:52.462Z,97805.16
2023-04-07T05:57:53.761Z,97801.53
2023-04-07T05:59:55.232Z,97806.50
2023-04-07T06:01:56.706Z,97805.56
2023-04-07T06:03:59.089Z,97800.22
2023-04-07T06:06:00.503Z,97802.53
2023-04-07T06:08:01.803Z,97800.72
2023-04-07T06:10:03.228Z,97803.19
2023-04-07T06:12:06.859Z,97797.31
2023-04-07T06:14:08.254Z,97799.78
2023-04-07T06:16:09.581Z,97799.88
2023-04-07T06:18:11.000Z,97800.72
2023-04-07T06:20:12.339Z,97805.81
2023-04-07T06:22:13.643Z,97676.13
2023-04-07T06:24:14.931Z,97796.63
2023-04-07T06:26:16.399Z,97797.63
2023-04-07T06:28:17.776Z,97800.44
2023-04-07T06:30:19.117Z,97794.59
2023-04-07T06:32:20.468Z,97806.63
2023-04-07T06:34:21.840Z,97805.91
2023-04-07T06:36:23.746Z,97801.78
2023-04-07T06:38:25.304Z,97800.81
2023-04-07T06:40:26.632Z,97809.63
2023-04-07T06:42:27.926Z,97804.63
2023-04-07T06:44:29.220Z,97808.91
2023-04-07T06:46:30.641Z,97812.28
2023-04-07T06:48:32.056Z,97810.84
2023-04-07T06:50:33.444Z,97810.19
2023-04-07T06:52:34.817Z,97810.69
2023-04-07T06:54:36.347Z,97813.28
2023-04-07T06:56:37.663Z,97804.94
2023-04-07T06:58:39.002Z,97802.09
2023-04-07T07:00:40.451Z,97801.19
2023-04-07T07:02:41.864Z,97802.06
2023-04-07T07:04:43.223Z,97798.94
2023-04-07T07:06:47.242Z,97809.63
2023-04-07T07:08:48.619Z,97805.94
2023-04-07T07:10:52.709Z,97663.91
2023-04-07T07:12:54.103Z,97801.16
2023-04-07T07:14:55.563Z,97809.53
2023-04-07T07:16:56.855Z,97811.66
2023-04-07T07:18:58.185Z,97810.25
2023-04-07T07:20:59.541Z,97815.44
2023-04-07T07:23:00.839Z,97813.72
2023-04-07T07:25:02.186Z,97811.19
2023-04-07T07:27:03.790Z,97824.81
2023-04-07T07:29:05.124Z,97816.22
2023-04-07T07:31:10.266Z,97821.34
2023-04-07T07:33:11.702Z,97825.63
2023-04-07T07:35:13.039Z,97825.66
2023-04-07T07:37:14.371Z,97829.13
2023-04-07T07:39:15.962Z,97820.66
2023-04-07T07:41:17.327Z,97818.75
2023-04-07T07:43:18.679Z,97820.47
2023-04-07T07:45:20.189Z,97823.16
2023-04-07T07:47:21.657Z,97828.56
2023-04-07T07:49:22.955Z,97829.63
2023-04-07T07:51:24.279Z,97827.16
2023-04-07T07:53:25.611Z,97826.47
2023-04-07T07:55:27.034Z,97829.28
2023-04-07T07:57:28.375Z,97837.09
2023-04-07T07:59:29.677Z,97833.81
2023-04-07T08:01:31.098Z,97839.97
2023-04-07T08:03:32.611Z,97701.72
2023-04-07T08:05:42.787Z,97702.81
2023-04-07T08:07:44.134Z,97843.88
2023-04-07T08:09:45.565Z,97845.72
2023-04-07T08:11:48.461Z,97846.69
2023-04-07T08:13:49.969Z,97851.91
2023-04-07T08:15:51.598Z,97846.94
2023-04-07T08:17:54.729Z,97847.91
2023-04-07T08:19:57.426Z,97850.53
2023-04-07T08:21:58.737Z,97854.84
2023-04-07T08:24:01.049Z,97848.13
2023-04-07T08:26:02.359Z,97850.72
2023-04-07T08:28:03.733Z,97843.13
2023-04-07T08:30:05.218Z,97853.38
2023-04-07T08:32:06.558Z,97847.44
2023-04-07T08:34:07.894Z,97852.47
2023-04-07T08:36:09.210Z,97852.41
2023-04-07T08:38:10.774Z,97842.16
2023-04-07T08:40:12.114Z,97850.50
2023-04-07T08:42:14.228Z,97851.19
2023-04-07T08:44:15.872Z,97853.56
2023-04-07T08:46:17.282Z,97855.91
2023-04-07T08:48:18.882Z,97850.66
2023-04-07T08:50:20.230Z,97856.41
2023-04-07T08:52:22.501Z,97854.53
2023-04-07T08:54:24.558Z,97854.44
2023-04-07T08:56:26.544Z,97854.38
2023-04-07T08:58:27.891Z,97854.19
2023-04-07T09:00:29.222Z,97846.38
2023-04-07T09:02:33.624Z,97850.50
2023-04-07T09:04:35.688Z,97850.50
2023-04-07T09:06:37.033Z,97852.13
2023-04-07T09:08:38.384Z,97849.56
2023-04-07T09:10:39.766Z,97856.38
2023-04-07T09:12:41.249Z,97854.75
2023-04-07T09:14:42.602Z,97848.56
2023-04-07T09:16:43.919Z,97843.47
2023-04-07T09:18:45.270Z,97848.03
2023-04-07T09:20:46.599Z,97846.16
2023-04-07T09:22:48.115Z,97848.59
2023-04-07T09:24:49.458Z,97846.63
2023-04-07T09:26:50.807Z,97848.88
2023-04-07T09:28:52.162Z,97839.59
2023-04-07T09:30:54.252Z,97838.00
2023-04-07T09:32:55.900Z,97837.25
2023-04-07T09:34:57.220Z,97834.03
2023-04-07T09:36:58.560Z,97837.81
2023-04-07T09:39:05.674Z,97831.56
2023-04-07T09:41:08.215Z,97833.63
2023-04-07T09:43:09.576Z,97839.34
2023-04-07T09:45:11.221Z,97834.72
2023-04-07T09:47:13.408Z,97837.25
2023-04-07T09:49:14.747Z,97832.69
2023-04-07T09:51:16.095Z,97824.53
2023-04-07T09:53:19.145Z,97824.66
2023-04-07T09:55:20.519Z,97818.78
2023-04-07T09:57:21.820Z,97823.13
2023-04-07T09:59:23.154Z,97822.34
2023-04-07T10:01:24.637Z,97824.06
2023-04-07T10:03:26.065Z,97827.53
2023-04-07T10:05:27.449Z,97821.59
2023-04-07T10:07:28.775Z,97819.00
2023-04-07T10:09:30.071Z,97819.25
2023-04-07T10:11:34.534Z,97830.00
2023-04-07T10:13:36.016Z,97821.84
2023-04-07T10:15:37.343Z,97820.06
2023-04-07T10:17:38.729Z,97818.63
2023-04-07T10:19:40.046Z,97822.50
2023-04-07T10:21:42.317Z,97825.16
2023-04-07T10:23:43.741Z,97814.16
2023-04-07T10:25:46.005Z,97813.22
2023-04-07T10:27:50.100Z,97812.56
2023-04-07T10:29:51.601Z,97812.59
2023-04-07T10:31:52.936Z,97810.56
2023-04-07T10:33:54.914Z,97809.81
2023-04-07T10:35:57.470Z,97813.22
2023-04-07T10:38:00.531Z,97806.41
2023-04-07T10:40:01.835Z,97806.50
2023-04-07T10:42:03.197Z,97813.97
2023-04-07T10:44:04.497Z,97806.00
2023-04-07T10:46:05.904Z,97816.81
2023-04-07T10:48:07.311Z,97817.91
2023-04-07T10:50:08.637Z,97819.84
2023-04-07T10:52:10.048Z,97826.44
2023-04-07T10:54:11.724Z,97814.50
2023-04-07T10:56:13.022Z,97814.78
2023-04-07T10:58:14.457Z,97815.53
2023-04-07T11:00:16.184Z,97821.97
2023-04-07T11:02:17.753Z,97825.66
2023-04-07T11:04:19.210Z,97825.00
2023-04-07T11:06:20.589Z,97826.16
2023-04-07T11:08:21.884Z,97823.75
2023-04-07T11:10:23.406Z,97823.84
2023-04-07T11:12:24.790Z,97822.22
2023-04-07T11:14:27.414Z,97820.66
2023-04-07T11:16:28.984Z,97828.50
2023-04-07T11:18:30.767Z,97825.19
2023-04-07T11:20:32.082Z,97821.84
2023-04-07T11:22:35.677Z,97832.94
2023-04-07T11:24:40.356Z,97822.75
2023-04-07T11:26:41.808Z,97827.00
2023-04-07T11:28:43.158Z,97823.59
2023-04-07T11:30:45.372Z,97822.75
2023-04-07T11:32:46.707Z,97813.38
2023-04-07T11:34:48.049Z,97815.13
2023-04-07T11:36:49.375Z,97822.41
2023-04-07T11:38:50.668Z,97818.69
2023-04-07T11:40:51.964Z,97820.41
2023-04-07T11:42:53.275Z,97821.25
2023-04-07T11:44:54.692Z,97820.03
2023-04-07T11:46:56.498Z,97816.44
2023-04-07T11:48:57.911Z,97823.00
2023-04-07T11:50:59.285Z,97825.38
2023-04-07T11:53:00.586Z,97822.53
2023-04-07T11:55:02.431Z,97824.13
2023-04-07T11:57:03.721Z,97818.19
2023-04-07T11:59:05.027Z,97821.50
2023-04-07T12:01:12.484Z,97824.91
2023-04-07T12:03:14.712Z,97821.56
2023-04-07T12:05:16.614Z,97821.63
2023-04-07T12:07:17.966Z,97822.50
2023-04-07T12:09:19.305Z,97825.25
2023-04-07T12:11:20.632Z,97821.09
2023-04-07T12:13:21.964Z,97821.00
2023-04-07T12:15:23.412Z,97819.84
2023-04-07T12:17:27.572Z,97824.38
2023-04-07T12:19:28.966Z,97829.72
2023-04-07T12:21:31.764Z,97829.84
2023-04-07T12:23:33.109Z,97830.84
2023-04-07T12:25:34.445Z,97832.63
2023-04-07T12:27:42.792Z,97823.38
2023-04-07T12:29:44.772Z,97828.59
2023-04-07T12:31:46.529Z,97828.66
2023-04-07T12:33:51.917Z,97823.69
2023-04-07T12:35:53.380Z,97818.63
2023-04-07T12:37:54.783Z,97828.91
2023-04-07T12:39:56.206Z,97826.38
2023-04-07T12:41:58.186Z,97823.03
2023-04-07T12:43:59.540Z,97817.91
2023-04-07T12:46:01.243Z,97812.78
2023-04-07T12:48:02.725Z,97808.41
2023-04-07T12:50:04.223Z,97814.25
2023-04-07T12:52:06.831Z,97812.53
2023-04-07T12:54:08.254Z,97821.75
2023-04-07T12:56:09.634Z,97815.72
2023-04-07T12:58:10.936Z,97814.50
2023-04-07T13:00:12.336Z,97817.09
2023-04-07T13:02:13.883Z,97810.41
2023-04-07T13:04:15.840Z,97808.78
2023-04-07T13:06:17.696Z,97802.69
2023-04-07T13:08:19.012Z,97813.19
2023-04-07T13:10:21.336Z,97810.75
2023-04-07T13:12:22.644Z,97805.69
2023-04-07T13:14:23.943Z,97804.88
2023-04-07T13:16:25.513Z,97804.78
2023-04-07T13:18:26.838Z,97806.06
2023-04-07T13:20:28.353Z,97809.56
2023-04-07T13:22:30.820Z,97799.47
2023-04-07T13:24:32.472Z,97802.50
2023-04-07T13:26:33.766Z,97795.13
2023-04-07T13:28:35.072Z,97796.06
2023-04-07T13:30:36.495Z,97795.19
2023-04-07T13:32:37.909Z,97794.44
2023-04-07T13:34:39.225Z,97800.66
2023-04-07T13:36:40.551Z,97804.78
2023-04-07T13:38:42.559Z,97795.75
2023-04-07T13:40:44.862Z,97799.34
2023-04-07T13:42:49.200Z,97801.53
2023-04-07T13:44:51.074Z,97790.50
2023-04-07T13:46:52.657Z,97790.03
2023-04-07T13:48:57.489Z,97798.13
2023-04-07T13:50:58.826Z,97792.06
2023-04-07T13:53:00.178Z,97792.13
2023-04-07T13:55:03.466Z,97791.63
2023-04-07T13:57:05.315Z,97787.97
2023-04-07T13:59:06.767Z,97784.59
2023-04-07T14:01:08.637Z,97785.22
2023-04-07T14:03:13.121Z,97783.63
2023-04-07T14:05:14.605Z,97788.50
2023-04-07T14:07:16.067Z,97783.91
2023-04-07T14:09:17.398Z,97781.00
2023-04-07T14:11:18.887Z,97783.13
2023-04-07T14:13:20.225Z,97781.69
2023-04-07T14:15:21.533Z,97789.72
2023-04-07T14:17:22.971Z,97786.63
2023-04-07T14:19:24.404Z,97781.56
2023-04-07T14:21:27.459Z,97779.22
2023-04-07T14:23:36.692Z,97779.56
2023-04-07T14:25:39.159Z,97784.88
2023-04-07T14:27:40.476Z,97785.41
2023-04-07T14:29:41.808Z,97781.50
2023-04-07T14:31:45.095Z,97781.13
2023-04-07T14:33:49.829Z,97785.31
2023-04-07T14:35:51.670Z,97786.69
2023-04-07T14:37:53.031Z,97779.88
2023-04-07T14:40:01.986Z,97778.44
2023-04-07T14:42:04.587Z,97786.47
2023-04-07T14:44:06.269Z,97783.41
2023-04-07T14:46:07.634Z,97787.66
2023-04-07T14:48:09.063Z,97790.63
2023-04-07T14:50:10.406Z,97788.38
2023-04-07T14:52:13.594Z,97790.28
2023-04-07T14:54:14.894Z,97789.13
2023-04-07T14:56:16.252Z,97792.59
2023-04-07T14:58:17.560Z,97794.56
2023-04-07T15:00:21.508Z,97800.13
2023-04-07T15:02:22.989Z,97788.31
2023-04-07T15:04:24.522Z,97791.88
2023-04-07T15:06:26.360Z,97791.13
2023-04-07T15:08:27.692Z,97797.25
2023-04-07T15:10:30.004Z,97789.81
2023-04-07T15:12:31.629Z,97790.38
2023-04-07T15:14:32.982Z,97793.09
2023-04-07T15:16:34.562Z,97799.47
2023-04-07T15:18:36.104Z,97801.38
2023-04-07T15:20:37.413Z,97793.06
2023-04-07T15:22:38.751Z,97790.81
2023-04-07T15:24:40.070Z,97799.88
2023-04-07T15:26:41.567Z,97797.25
2023-04-07T15:28:45.865Z,97792.91
2023-04-07T15:30:47.473Z,97796.78
2023-04-07T15:32:51.670Z,97796.63
2023-04-07T15:34:53.036Z,97794.84
2023-04-07T15:36:54.339Z,97793.06
2023-04-07T15:38:55.690Z,97798.28
2023-04-07T15:40:57.018Z,97794.91
2023-04-07T15:42:58.357Z,97800.84
2023-04-07T15:44:59.730Z,97803.75
2023-04-07T15:47:01.173Z,97799.75
2023-04-07T15:49:02.543Z,97802.00
2023-04-07T15:51:03.870Z,97801.59
2023-04-07T15:53:05.226Z,97801.47
2023-04-07T15:55:06.618Z,97799.38
2023-04-07T15:57:08.665Z,97796.59
2023-04-07T15:59:09.975Z,97796.50
2023-04-07T16:01:11.290Z,97801.31
2023-04-07T16:03:15.908Z,97799.75
2023-04-07T16:05:17.391Z,97796.16
2023-04-07T16:07:18.824Z,97805.06
2023-04-07T16:09:20.285Z,97814.34
2023-04-07T16:11:24.445Z,97805.28
2023-04-07T16:13:26.096Z,97813.00
2023-04-07T16:15:39.343Z,97807.44
2023-04-07T16:17:41.926Z,97813.97
2023-04-07T16:19:43.272Z,97806.41
2023-04-07T16:21:44.591Z,97806.41
2023-04-07T16:23:46.374Z,97814.88
2023-04-07T16:25:47.837Z,97816.00
2023-04-07T16:27:51.910Z,97820.38
2023-04-07T16:29:53.200Z,97821.88
2023-04-07T16:31:54.533Z,97816.47
2023-04-07T16:33:55.919Z,97831.41
2023-04-07T16:36:00.234Z,97825.53
2023-04-07T16:38:04.463Z,97824.34
2023-04-07T16:40:06.190Z,97823.16
2023-04-07T16:42:07.489Z,97826.44
2023-04-07T16:44:08.779Z,97820.56
2023-04-07T16:46:10.285Z,97823.66
2023-04-07T16:48:11.585Z,97824.06
2023-04-07T16:50:13.046Z,97827.31
2023-04-07T16:52:14.352Z,97831.13
2023-04-07T16:54:15.712Z,97834.75
2023-04-07T16:56:17.257Z,97831.53
2023-04-07T16:58:19.627Z,97852.13
2023-04-07T17:00:21.217Z,97838.34
2023-04-07T17:02:22.870Z,97830.34
2023-04-07T17:04:24.420Z,97846.59
2023-04-07T17:06:28.624Z,97839.19
2023-04-07T17:08:29.994Z,97847.38
2023-04-07T17:10:31.341Z,97846.28
2023-04-07T17:12:32.709Z,97851.06
2023-04-07T17:14:34.013Z,97854.44
2023-04-07T17:16:35.311Z,97839.38
2023-04-07T17:18:36.609Z,97852.19
2023-04-07T17:20:37.939Z,97850.91
2023-04-07T17:22:39.297Z,97848.50
2023-04-07T17:24:41.119Z,97858.66
2023-04-07T17:26:42.468Z,97856.88
2023-04-07T17:28:43.773Z,97859.34
2023-04-07T17:30:45.136Z,97864.31
2023-04-07T17:32:46.617Z,97871.97
2023-04-07T17:34:47.988Z,97866.81
2023-04-07T17:36:49.304Z,97866.69
2023-04-07T17:38:50.635Z,97867.50
2023-04-07T17:40:51.996Z,97865.75
2023-04-07T17:42:54.001Z,97873.41
2023-04-07T17:44:55.915Z,97869.16
2023-04-07T17:46:57.499Z,97879.28
2023-04-07T17:48:59.198Z,97879.53
2023-04-07T17:51:06.340Z,97886.69
2023-04-07T17:53:07.849Z,97887.09
2023-04-07T17:55:09.293Z,97885.53
2023-04-07T17:57:11.546Z,97882.00
2023-04-07T17:59:12.982Z,97886.41
2023-04-07T18:01:15.089Z,97892.38
2023-04-07T18:03:16.672Z,97894.16
2023-04-07T18:05:18.147Z,97897.72
2023-04-07T18:07:22.173Z,97891.06
2023-04-07T18:09:26.779Z,97892.94
2023-04-07T18:11:28.387Z,97893.84
2023-04-07T18:13:29.788Z,97899.16
2023-04-07T18:15:37.216Z,97902.47
2023-04-07T18:17:38.566Z,97898.88
2023-04-07T18:19:39.869Z,97908.13
2023-04-07T18:21:41.677Z,97911.13
2023-04-07T18:23:49.251Z,97918.38
2023-04-07T18:25:56.546Z,97915.53
2023-04-07T18:27:58.738Z,97915.22
2023-04-07T18:30:00.101Z,97919.69
2023-04-07T18:32:05.062Z,97922.63
2023-04-07T18:34:06.370Z,97926.59
2023-04-07T18:36:08.014Z,97927.22
2023-04-07T18:38:12.307Z,97926.41
2023-04-07T18:40:13.644Z,97942.72
2023-04-07T18:42:14.947Z,97931.44
2023-04-07T18:44:16.294Z,97926.19
2023-04-07T18:46:20.842Z,97928.41
2023-04-07T18:48:22.215Z,97923.88
2023-04-07T18:50:23.548Z,97928.66
2023-04-07T18:52:27.552Z,97931.13
2023-04-07T18:54:28.884Z,97930.94
2023-04-07T18:56:30.804Z,97924.84
2023-04-07T18:58:35.798Z,97928.94
2023-04-07T19:00:37.237Z,97923.81
2023-04-07T19:02:44.165Z,97928.06
2023-04-07T19:04:48.687Z,97934.84
2023-04-07T19:06:49.985Z,97931.59
2023-04-07T19:08:51.483Z,97930.81
2023-04-07T19:10:52.819Z,97929.09
2023-04-07T19:12:54.136Z,97936.75
2023-04-07T19:14:56.268Z,97933.50
2023-04-07T19:16:57.761Z,97931.97
2023-04-07T19:18:59.152Z,97936.56
2023-04-07T19:21:02.225Z,97936.41
2023-04-07T19:23:03.682Z,97925.81
2023-04-07T19:25:05.029Z,97936.78
2023-04-07T19:27:06.932Z,97932.53
2023-04-07T19:29:10.692Z,97938.56
2023-04-07T19:31:14.955Z,97934.53
2023-04-07T19:33:16.286Z,97940.88
2023-04-07T19:35:17.659Z,97939.41
2023-04-07T19:37:19.017Z,97932.06
2023-04-07T19:39:20.466Z,97940.88
2023-04-07T19:41:22.049Z,97937.03
2023-04-07T19:43:23.346Z,97932.66
2023-04-07T19:45:24.715Z,97929.28
2023-04-07T19:47:26.069Z,97937.88
2023-04-07T19:49:27.392Z,97941.09
2023-04-07T19:51:28.804Z,97932.88
2023-04-07T19:53:30.216Z,97934.00
2023-04-07T19:55:31.565Z,97937.59
2023-04-07T19:57:33.379Z,97953.09
2023-04-07T19:59:34.896Z,97939.66
2023-04-07T20:01:36.356Z,97934.66
2023-04-07T20:03:43.048Z,97937.41
2023-04-07T20:05:44.656Z,97940.81
2023-04-07T20:07:46.306Z,97936.75
2023-04-07T20:09:47.647Z,97929.13
2023-04-07T20:11:49.165Z,97933.66
2023-04-07T20:13:53.173Z,97934.28
2023-04-07T20:15:54.768Z,97935.06
2023-04-07T20:17:56.373Z,97938.53
2023-04-07T20:19:57.718Z,97935.53
2023-04-07T20:21:59.107Z,97931.69
2023-04-07T20:24:00.438Z,97933.91
2023-04-07T20:26:02.392Z,97931.72
2023-04-07T20:28:06.618Z,97932.97
2023-04-07T20:30:09.173Z,97936.28
2023-04-07T20:32:10.616Z,97923.28
2023-04-07T20:34:11.936Z,97935.66
2023-04-07T20:36:13.339Z,97929.06
2023-04-07T20:38:14.683Z,97929.06
2023-04-07T20:40:16.040Z,97929.78
2023-04-07T20:42:17.613Z,97935.84
2023-04-07T20:44:19.042Z,97931.56
2023-04-07T20:46:20.563Z,97931.75
2023-04-07T20:48:24.043Z,97931.97
2023-04-07T20:50:25.780Z,97931.25
2023-04-07T20:52:27.512Z,97934.66
2023-04-07T20:54:29.848Z,97929.59
2023-04-07T20:56:34.674Z,97934.06
2023-04-07T20:58:36.666Z,97931.81
2023-04-07T21:00:37.980Z,97933.75
2023-04-07T21:02:39.654Z,97932.88
2023-04-07T21:04:41.593Z,97784.22
2023-04-07T21:06:42.893Z,97926.75
2023-04-07T21:08:44.213Z,97936.34
2023-04-07T21:10:45.517Z,97935.94
2023-04-07T21:12:46.859Z,97932.44
2023-04-07T21:14:48.189Z,97926.56
2023-04-07T21:16:49.539Z,97930.00
2023-04-07T21:18:51.113Z,97922.53
2023-04-07T21:20:52.530Z,97925.19
2023-04-07T21:22:53.853Z,97935.47
2023-04-07T21:24:56.184Z,97938.97
2023-04-07T21:26:58.628Z,97928.75
2023-04-07T21:28:59.918Z,97920.28
2023-04-07T21:31:02.265Z,97932.53
2023-04-07T21:33:03.664Z,97929.19
2023-04-07T21:35:05.001Z,97927.59
2023-04-07T21:37:09.003Z,97925.72
2023-04-07T21:39:10.852Z,97922.28
2023-04-07T21:41:12.144Z,97920.59
2023-04-07T21:43:13.681Z,97923.13
2023-04-07T21:45:15.009Z,97930.13
2023-04-07T21:47:16.338Z,97925.03
2023-04-07T21:49:22.432Z,97927.41
2023-04-07T21:51:23.975Z,97928.28
2023-04-07T21:53:25.289Z,97928.25
2023-04-07T21:55:27.315Z,97927.41
2023-04-07T21:57:28.761Z,97945.13
2023-04-07T21:59:30.202Z,97923.78
2023-04-07T22:01:31.611Z,97923.16
2023-04-07T22:03:33.122Z,97921.00
2023-04-07T22:05:34.503Z,97926.63
2023-04-07T22:07:36.177Z,97926.72
2023-04-07T22:09:37.556Z,97920.72
2023-04-07T22:11:38.896Z,97918.00
2023-04-07T22:13:40.191Z,97921.34
2023-04-07T22:15:41.524Z,97915.59
2023-04-07T22:17:42.863Z,97921.81
2023-04-07T22:19:44.189Z,97908.09
2023-04-07T22:21:45.687Z,97910.44
2023-04-07T22:23:47.071Z,97908.72
2023-04-07T22:25:49.234Z,97906.06
2023-04-07T22:27:52.381Z,97906.66
2023-04-07T22:29:53.761Z,97902.22
2023-04-07T22:31:55.236Z,97904.13
2023-04-07T22:33:56.729Z,97905.19
2023-04-07T22:35:58.056Z,97903.50
2023-04-07T22:37:59.391Z,97899.25
2023-04-07T22:40:01.014Z,97902.47
2023-04-07T22:42:02.855Z,97903.50
2023-04-07T22:44:04.172Z,97909.09
2023-04-07T22:46:05.592Z,97906.47
2023-04-07T22:48:06.932Z,97910.34
2023-04-07T22:50:08.341Z,97915.38
2023-04-07T22:52:09.715Z,97909.63
2023-04-07T22:54:11.424Z,97917.19
2023-04-07T22:56:12.730Z,97915.63
2023-04-07T22:58:14.072Z,97916.31
2023-04-07T23:00:15.568Z,97908.91
2023-04-07T23:02:16.968Z,97914.25
2023-04-07T23:04:18.397Z,97912.59
2023-04-07T23:06:19.718Z,97917.63
2023-04-07T23:08:21.054Z,97917.97
2023-04-07T23:10:22.481Z,97915.75
2023-04-07T23:12:23.810Z,97911.69
2023-04-07T23:14:25.376Z,97911.00
2023-04-07T23:16:26.734Z,97912.84
2023-04-07T23:18:28.075Z,97909.56
2023-04-07T23:20:29.392Z,97917.34
2023-04-07T23:22:30.738Z,97908.88
2023-04-07T23:24:32.081Z,97912.31
2023-04-07T23:26:33.436Z,97909.69
2023-04-07T23:28:34.776Z,97915.47
2023-04-07T23:30:37.396Z,97921.22
2023-04-07T23:32:38.715Z,97910.75
2023-04-07T23:34:40.078Z,97914.91
2023-04-07T23:36:41.535Z,97911.28
2023-04-07T23:38:42.828Z,97899.19
2023-04-07T23:40:44.152Z,97903.22
2023-04-07T23:42:45.665Z,97901.31
2023-04-07T23:44:47.036Z,97901.19
2023-04-07T23:46:48.336Z,97904.47
2023-04-07T23:48:49.972Z,97901.81
2023-04-07T23:50:52.019Z,97907.72